Airfield :
LOGIN :

Register | Disclaimer

   EN    FR    IT 

 










Legend :    VFR   Marginal VFR   IFR   Intensive IFR   Very Intensive IFR
Visi :
Ceiling :
>= 8 km
>= 3000ft
5 to 8 km
1000 to 3000 ft
1500m to 5 km
500 to 1000 ft
800 to 1500m
200 to 500 ft
< 800m
< 200 ft
Symbols :   Thunderstorms  Fog  Heavy snow  Heavy precipitations  Wind > 20 kt
SIGMETs :     Misc.  Thunderstorms  Icing  Turbulence  Mountain Waves  Volcanic Ashes






- Airport Elevation : 299 ft
- IATA code : EDM


LFRI - La Roche Sur Yon - Les Ajoncs

CURRENT METAR :
  • 230430Z AUTO 21011KT 180V240 9999 FEW025/// SCT041/// BKN050/// ///TCU 07/06 Q0996

EXPIRED METARs :
  • 230400Z AUTO 21008KT 9999 FEW044 BKN078 BKN092 06/05 Q0997
  • 230330Z AUTO 20009KT 9999 FEW015/// SCT054/// BKN076/// ///TCU 06/06 Q0997
  • 230300Z AUTO 20010KT 170V230 9999 FEW012/// SCT041/// BKN052/// ///CB 07/06 Q0998
  • 230230Z AUTO 23011G21KT 170V290 5000 RA BR FEW010/// SCT014/// BKN020/// ///CB 07/06 Q0999
  • 230200Z AUTO 17007KT 9999 -RA SCT037/// BKN045/// BKN066/// ///CB 06/05 Q0999

TAF TAF LFRI
Valid from the 22 at 18:00 until the 23 at 18:00 UTC


221700Z 2218/2318 29012KT 9999 BKN030
TEMPO 2218/2222 27015G25KT -SHRA BKN020TCU SCT030CB
BECMG 2301/2303 17010KT -RA
TEMPO 2303/2305 3000 RA OVC005
BECMG 2304/2306 26015G30KT
PROB40
TEMPO 2306/2311 30022G42KT SHRA SCT025TCU
BECMG 2312/2315 30012G22KT NSW



MET'MAP, your aeronautical weather chart ! - Copyright ORBIFLY December 2007 - Disclaimer

ORBIFLY MET'MAP TEAM :

Programming & Development : Alexandra Zaïnal
Concept & original design : Baudouin d'Aumeries
Assistance for programming : Marc-Olivier Méhu
Technical & hardware support : Manuel Goepfert

Contact : metmap@orbifly.com




SOURCES & CREDITS :

   NOAA